createdAt,value
2016-07-25T06:41:28.266Z,11650
2016-07-25T06:41:41.726Z,11687
2016-07-25T06:41:58.548Z,11734
2016-07-25T06:42:15.063Z,11767
2016-07-25T06:42:29.309Z,11825
2016-07-25T06:42:53.194Z,11894
2016-07-25T06:43:07.338Z,12015
2016-07-25T06:43:26.800Z,12095
2016-07-25T06:43:43.387Z,12170
2016-07-25T06:44:02.711Z,12274
2016-07-25T06:44:27.933Z,12433
2016-07-25T06:44:50.292Z,12631
2016-07-25T06:45:10.986Z,12575
2016-07-25T06:45:24.692Z,12669
2016-07-25T06:45:39.834Z,13338
2016-07-25T06:45:53.755Z,13454
2016-07-25T06:46:23.592Z,5912
2016-07-25T06:46:46.543Z,14403
2016-07-25T06:47:08.945Z,14633
2016-07-25T06:47:28.446Z,14819
2016-07-25T06:47:45.045Z,14922
2016-07-25T06:48:06.222Z,15043
2016-07-25T06:48:25.577Z,15185
2016-07-25T06:48:36.400Z,15232
2016-07-25T06:48:57.306Z,15386
2016-07-25T06:49:11.070Z,15473
2016-07-25T06:49:27.672Z,15613
2016-07-25T06:49:50.016Z,15736
2016-07-25T06:50:25.297Z,15715
2016-07-25T06:50:44.753Z,15854
2016-07-25T06:51:07.959Z,16055
2016-07-25T06:51:25.578Z,16147
2016-07-25T06:51:42.190Z,16247
2016-07-25T06:51:58.786Z,16379
2016-07-25T06:52:15.111Z,16490
2016-07-25T06:52:34.586Z,16639
2016-07-25T06:52:48.183Z,16656
2016-07-25T06:53:10.836Z,16783
2016-07-25T06:53:27.083Z,16841
2016-07-25T06:53:43.528Z,16895
2016-07-25T06:53:57.140Z,16915
2016-07-25T06:54:10.685Z,16987
2016-07-25T06:54:27.070Z,17388
2016-07-25T06:54:43.550Z,17384
2016-07-25T06:55:00.108Z,17410
2016-07-25T06:55:16.679Z,17445
2016-07-25T06:55:30.053Z,17463
2016-07-25T06:55:51.284Z,17473
2016-07-25T06:56:13.538Z,17460
2016-07-25T06:56:35.841Z,17497
2016-07-25T06:56:55.157Z,17543
2016-07-25T06:57:15.701Z,17590
2016-07-25T06:57:35.619Z,17635
2016-07-25T06:57:52.020Z,17642
2016-07-25T06:58:06.285Z,17687
2016-07-25T06:58:22.852Z,17733
2016-07-25T06:58:45.791Z,17780
2016-07-25T06:59:05.218Z,17844
2016-07-25T06:59:30.404Z,17907
2016-07-25T06:59:46.965Z,17942
2016-07-25T07:00:03.464Z,17969
2016-07-25T07:00:17.444Z,17996
2016-07-25T07:00:36.990Z,18049
2016-07-25T07:00:53.950Z,18101
2016-07-25T07:01:10.552Z,18180
2016-07-25T07:01:27.134Z,18248
2016-07-25T07:01:46.423Z,18333
2016-07-25T07:02:00.100Z,18402
2016-07-25T07:02:16.657Z,18496
2016-07-25T07:02:33.243Z,18590
2016-07-25T07:02:50.948Z,18682
2016-07-25T07:03:10.244Z,18801
2016-07-25T07:03:23.892Z,18886
2016-07-25T07:03:34.420Z,18973
2016-07-25T07:03:45.224Z,19023
2016-07-25T07:04:04.636Z,19144
2016-07-25T07:04:34.788Z,19261
2016-07-25T07:04:54.034Z,19309
2016-07-25T07:05:13.481Z,19396
2016-07-25T07:05:32.874Z,19430
2016-07-25T07:05:43.966Z,19447
2016-07-25T07:05:57.320Z,19427
2016-07-25T07:06:18.008Z,19417
2016-07-25T07:06:31.621Z,19408
2016-07-25T07:06:53.913Z,19365
2016-07-25T07:07:07.420Z,19321
2016-07-25T07:07:26.802Z,19281
2016-07-25T07:07:43.326Z,19223
